createdAt,value
2019-06-26T00:00:24.247Z,71.20
2019-06-26T00:02:52.952Z,70.97
2019-06-26T00:05:21.669Z,70.88
2019-06-26T00:07:50.436Z,70.76
2019-06-26T00:10:19.166Z,73.53
2019-06-26T00:12:47.897Z,74.53
2019-06-26T00:15:16.843Z,73.98
2019-06-26T00:17:45.564Z,72.69
2019-06-26T00:20:15.896Z,72.78
2019-06-26T00:22:44.632Z,74.07
2019-06-26T00:25:13.745Z,75.13
2019-06-26T00:27:42.510Z,75.00
2019-06-26T00:30:12.617Z,74.55
2019-06-26T00:32:41.322Z,75.03
2019-06-26T00:35:10.090Z,75.98
2019-06-26T00:37:38.802Z,76.58
2019-06-26T00:40:08.006Z,76.89
2019-06-26T00:42:36.721Z,77.03
2019-06-26T00:45:08.427Z,77.19
2019-06-26T00:47:37.190Z,77.30
2019-06-26T00:50:10.675Z,77.94
2019-06-26T00:52:39.379Z,78.39
2019-06-26T00:55:08.194Z,78.55
2019-06-26T00:57:37.019Z,79.01
2019-06-26T01:00:10.272Z,79.11
2019-06-26T01:02:39.085Z,79.76
2019-06-26T01:05:12.799Z,80.04
2019-06-26T01:07:41.514Z,80.00
2019-06-26T01:10:11.835Z,80.19
2019-06-26T01:12:40.581Z,79.67
2019-06-26T01:15:10.203Z,80.16
2019-06-26T01:17:38.967Z,80.47
2019-06-26T01:20:08.519Z,80.71
2019-06-26T01:22:37.235Z,80.13
2019-06-26T01:25:06.458Z,80.41
2019-06-26T01:27:35.177Z,80.57
2019-06-26T01:30:05.803Z,80.95
2019-06-26T01:32:34.656Z,80.90
2019-06-26T01:35:04.571Z,80.66
2019-06-26T01:37:33.385Z,81.00
2019-06-26T01:40:02.151Z,81.61
2019-06-26T01:42:30.870Z,81.39
2019-06-26T01:44:59.577Z,81.43
2019-06-26T01:47:28.287Z,81.09
2019-06-26T01:49:57.003Z,80.42
2019-06-26T01:52:25.750Z,80.25
2019-06-26T01:54:54.471Z,80.48
2019-06-26T01:57:23.184Z,80.35
2019-06-26T01:59:51.938Z,80.25
2019-06-26T02:02:20.642Z,80.11
2019-06-26T02:04:49.354Z,79.26
2019-06-26T02:07:18.085Z,79.18
2019-06-26T02:09:46.802Z,79.29
2019-06-26T02:12:15.554Z,79.71
2019-06-26T02:14:44.267Z,79.35
2019-06-26T02:17:12.973Z,79.30
2019-06-26T02:19:41.705Z,79.09
2019-06-26T02:22:10.414Z,78.82
2019-06-26T02:24:39.156Z,78.58
2019-06-26T02:27:07.964Z,79.00
2019-06-26T02:29:36.679Z,78.90
2019-06-26T02:32:05.390Z,78.73
2019-06-26T02:34:34.096Z,78.49
2019-06-26T02:37:02.858Z,78.53
2019-06-26T02:39:31.566Z,78.99
2019-06-26T02:42:00.290Z,79.29
2019-06-26T02:44:28.995Z,79.62
2019-06-26T02:47:17.589Z,79.58
2019-06-26T02:49:28.173Z,79.93
2019-06-26T02:51:56.892Z,79.89
2019-06-26T02:54:25.606Z,80.02
2019-06-26T02:56:54.317Z,80.11
2019-06-26T02:59:23.019Z,79.90
2019-06-26T03:01:51.795Z,80.24
2019-06-26T03:04:20.497Z,79.72
2019-06-26T03:06:49.201Z,79.10
2019-06-26T03:09:17.922Z,79.05
2019-06-26T03:11:46.638Z,79.13
2019-06-26T03:14:15.413Z,78.81
2019-06-26T03:16:44.124Z,79.00
2019-06-26T03:19:12.831Z,79.26
2019-06-26T03:21:41.549Z,78.71
2019-06-26T03:24:10.255Z,78.70
2019-06-26T03:26:39.001Z,78.12
2019-06-26T03:29:07.709Z,78.48
2019-06-26T03:31:36.426Z,78.11
2019-06-26T03:34:05.245Z,77.17
2019-06-26T03:36:33.952Z,77.17
2019-06-26T03:39:02.703Z,76.59
2019-06-26T03:41:31.410Z,76.28
2019-06-26T03:44:00.163Z,76.19
2019-06-26T03:46:28.858Z,75.66
2019-06-26T03:48:57.769Z,75.32
2019-06-26T03:51:26.533Z,75.06
2019-06-26T03:53:55.246Z,74.70
2019-06-26T03:56:23.954Z,73.80
2019-06-26T03:58:52.675Z,72.96
2019-06-26T04:01:21.384Z,72.43
2019-06-26T04:03:50.099Z,72.11
2019-06-26T04:06:18.888Z,72.11
2019-06-26T04:08:47.654Z,71.87
2019-06-26T04:11:16.384Z,71.11
2019-06-26T04:13:45.093Z,70.40
2019-06-26T04:16:13.825Z,70.20
2019-06-26T04:18:42.538Z,69.84
2019-06-26T04:21:11.307Z,68.99
2019-06-26T04:23:40.017Z,68.33
2019-06-26T04:26:08.730Z,68.09
2019-06-26T04:28:37.449Z,69.96
2019-06-26T04:31:06.154Z,70.48
2019-06-26T04:33:34.904Z,69.48
2019-06-26T04:36:03.661Z,68.35
2019-06-26T04:38:32.393Z,67.15
2019-06-26T04:41:01.104Z,66.64
2019-06-26T04:43:29.812Z,65.09
2019-06-26T04:45:58.888Z,63.47
2019-06-26T04:48:27.846Z,63.08
2019-06-26T04:50:56.576Z,65.04
2019-06-26T04:53:25.288Z,65.10
2019-06-26T04:55:53.989Z,65.60
2019-06-26T04:58:22.750Z,65.31
2019-06-26T05:00:51.456Z,64.61
2019-06-26T05:03:20.176Z,64.78
2019-06-26T05:05:48.885Z,64.76
2019-06-26T05:08:17.597Z,64.78
2019-06-26T05:10:46.367Z,64.07
2019-06-26T05:13:15.079Z,64.07
2019-06-26T05:15:43.782Z,62.36
2019-06-26T05:18:12.501Z,62.53
2019-06-26T05:20:41.208Z,61.57
2019-06-26T05:23:09.972Z,60.03
2019-06-26T05:25:38.681Z,60.03
2019-06-26T05:28:08.571Z,60.12
2019-06-26T05:30:37.825Z,59.65
2019-06-26T05:33:06.529Z,59.63
2019-06-26T05:35:35.509Z,59.11
2019-06-26T05:38:04.382Z,59.11
2019-06-26T05:40:33.095Z,59.46
2019-06-26T05:43:01.812Z,59.65
2019-06-26T05:45:30.536Z,59.90
2019-06-26T05:47:59.237Z,59.09
2019-06-26T05:50:28.101Z,58.04
2019-06-26T05:52:56.833Z,58.95
2019-06-26T05:55:25.547Z,59.17
2019-06-26T05:57:54.297Z,60.01
2019-06-26T06:00:23.024Z,60.30
2019-06-26T06:02:54.018Z,60.67
2019-06-26T06:05:22.356Z,59.13
2019-06-26T06:07:51.050Z,61.03
2019-06-26T06:10:19.901Z,62.38
2019-06-26T06:12:48.610Z,61.82
2019-06-26T06:15:19.226Z,60.88
2019-06-26T06:17:48.488Z,60.88
2019-06-26T06:20:20.152Z,63.29
2019-06-26T06:22:48.918Z,63.73
2019-06-26T06:25:17.623Z,63.77
2019-06-26T06:27:46.332Z,64.12
2019-06-26T06:30:15.304Z,64.50
2019-06-26T06:32:43.992Z,61.25
2019-06-26T06:35:13.006Z,59.54
2019-06-26T06:37:41.716Z,58.98
2019-06-26T06:40:10.929Z,57.81
2019-06-26T06:42:39.682Z,57.84
2019-06-26T06:45:08.985Z,57.95
2019-06-26T06:47:37.693Z,58.13
2019-06-26T06:50:06.712Z,58.45
2019-06-26T06:52:35.443Z,57.61
2019-06-26T06:55:07.781Z,56.02
2019-06-26T06:57:36.529Z,57.26
2019-06-26T07:00:09.065Z,57.06
2019-06-26T07:02:37.777Z,55.70
2019-06-26T07:05:07.992Z,56.50
2019-06-26T07:07:36.753Z,55.88
2019-06-26T07:10:07.307Z,55.50
2019-06-26T07:12:36.011Z,55.19
2019-06-26T07:15:07.678Z,55.12
2019-06-26T07:17:36.488Z,54.64
2019-06-26T07:20:06.612Z,54.25
2019-06-26T07:22:35.348Z,53.75
2019-06-26T07:25:04.857Z,52.69
2019-06-26T07:27:33.575Z,52.30
2019-06-26T07:30:02.343Z,51.97
2019-06-26T07:32:31.090Z,50.10
2019-06-26T07:34:59.809Z,50.93
2019-06-26T07:37:28.543Z,51.05
2019-06-26T07:40:01.507Z,51.57
2019-06-26T07:42:27.716Z,51.43
2019-06-26T07:44:56.427Z,51.09
2019-06-26T07:47:41.507Z,51.44
2019-06-26T07:49:55.575Z,51.31
2019-06-26T07:52:24.284Z,50.71
2019-06-26T07:54:53.087Z,51.05
2019-06-26T07:57:21.850Z,51.20
2019-06-26T07:59:50.550Z,51.35
2019-06-26T08:02:19.320Z,50.68
2019-06-26T08:04:48.038Z,50.00
2019-06-26T08:07:16.748Z,49.65
2019-06-26T08:09:45.544Z,49.61
2019-06-26T08:12:14.258Z,49.83
2019-06-26T08:14:43.023Z,49.38
2019-06-26T08:17:11.739Z,48.30
2019-06-26T08:19:40.459Z,49.00
2019-06-26T08:22:09.172Z,48.86
2019-06-26T08:24:37.879Z,47.95
2019-06-26T08:27:06.651Z,47.15
2019-06-26T08:29:35.412Z,47.73
2019-06-26T08:32:04.133Z,48.10
2019-06-26T08:34:32.970Z,49.59
2019-06-26T08:37:01.685Z,48.54
2019-06-26T08:39:30.452Z,49.13
2019-06-26T08:41:59.209Z,48.71
2019-06-26T08:44:27.927Z,48.42
2019-06-26T08:46:56.673Z,47.79
2019-06-26T08:49:26.661Z,48.23
2019-06-26T08:51:55.889Z,48.49
2019-06-26T08:54:24.618Z,48.35
2019-06-26T08:56:53.391Z,48.07
2019-06-26T08:59:22.525Z,47.41
2019-06-26T09:01:51.233Z,47.64
2019-06-26T09:04:19.940Z,47.31
2019-06-26T09:06:48.671Z,47.53
2019-06-26T09:09:17.376Z,47.67
2019-06-26T09:11:46.121Z,48.49
2019-06-26T09:14:14.838Z,49.30
2019-06-26T09:16:43.575Z,49.87
2019-06-26T09:19:12.290Z,49.12
2019-06-26T09:21:40.806Z,48.16
2019-06-26T09:24:09.559Z,49.34
2019-06-26T09:26:38.268Z,48.37
2019-06-26T09:29:07.007Z,47.13
2019-06-26T09:31:35.728Z,46.33
2019-06-26T09:34:04.637Z,46.78
2019-06-26T09:36:33.368Z,46.83
2019-06-26T09:39:02.075Z,45.54
2019-06-26T09:41:30.834Z,45.19
2019-06-26T09:43:59.550Z,44.80
2019-06-26T09:46:28.334Z,44.38
2019-06-26T09:48:57.113Z,44.58
2019-06-26T09:51:25.825Z,44.36
2019-06-26T09:53:54.541Z,45.58
2019-06-26T09:56:23.288Z,48.16
2019-06-26T09:58:52.006Z,45.65
2019-06-26T10:01:20.713Z,44.51
2019-06-26T10:03:49.432Z,45.39
2019-06-26T10:06:18.141Z,43.49
2019-06-26T10:08:46.901Z,42.60
2019-06-26T10:11:15.616Z,42.96
2019-06-26T10:13:44.331Z,43.50
2019-06-26T10:16:13.097Z,46.07
2019-06-26T10:18:41.810Z,48.63
2019-06-26T10:21:10.521Z,49.84
2019-06-26T10:23:39.253Z,52.78
2019-06-26T10:26:08.023Z,53.39
2019-06-26T10:28:36.803Z,52.98
2019-06-26T10:31:05.520Z,51.27
2019-06-26T10:33:34.233Z,53.66
2019-06-26T10:36:02.987Z,51.31
2019-06-26T10:38:31.700Z,50.37
2019-06-26T10:41:00.415Z,48.42
2019-06-26T10:43:29.132Z,47.53
2019-06-26T10:45:57.849Z,47.57
2019-06-26T10:48:26.626Z,44.85
2019-06-26T10:50:58.909Z,44.59
2019-06-26T10:53:25.769Z,44.95
2019-06-26T10:55:54.541Z,45.43
2019-06-26T10:58:23.256Z,44.35
2019-06-26T11:00:51.970Z,43.00
2019-06-26T11:03:20.689Z,43.91
2019-06-26T11:05:49.402Z,44.91
2019-06-26T11:08:18.161Z,44.40
2019-06-26T11:10:46.929Z,45.73
2019-06-26T11:13:15.680Z,46.79
2019-06-26T11:15:44.398Z,47.13
2019-06-26T11:18:13.163Z,46.35
2019-06-26T11:20:42.251Z,45.39
2019-06-26T11:23:10.970Z,44.07
2019-06-26T11:25:39.786Z,44.29
2019-06-26T11:28:08.487Z,45.49
2019-06-26T11:30:37.299Z,46.89
2019-06-26T11:33:06.062Z,47.48
2019-06-26T11:35:34.772Z,47.11
2019-06-26T11:38:03.484Z,46.96
2019-06-26T11:40:32.203Z,47.69
2019-06-26T11:43:00.971Z,48.23
2019-06-26T11:45:29.748Z,48.70
2019-06-26T11:47:58.465Z,48.49
2019-06-26T11:50:27.182Z,48.17
2019-06-26T11:52:55.910Z,48.56
2019-06-26T11:55:24.919Z,46.69
2019-06-26T11:57:53.638Z,48.20
2019-06-26T12:00:24.714Z,48.79
2019-06-26T12:02:53.418Z,49.29
2019-06-26T12:05:22.943Z,50.66
2019-06-26T12:07:51.683Z,50.21
2019-06-26T12:10:20.940Z,50.98
2019-06-26T12:12:49.689Z,53.19
2019-06-26T12:15:20.854Z,53.72
2019-06-26T12:17:49.667Z,56.07
2019-06-26T12:20:20.199Z,57.23
2019-06-26T12:22:48.914Z,55.48
2019-06-26T12:25:17.736Z,57.02
2019-06-26T12:27:46.436Z,57.82
2019-06-26T12:30:15.477Z,58.87
2019-06-26T12:33:01.649Z,58.04
2019-06-26T12:35:15.422Z,56.30
2019-06-26T12:37:44.133Z,54.53
2019-06-26T12:40:12.959Z,53.78
2019-06-26T12:42:41.797Z,52.79
2019-06-26T12:45:10.805Z,51.30
2019-06-26T12:47:39.517Z,52.04
2019-06-26T12:50:09.177Z,53.96
2019-06-26T12:52:37.885Z,51.07
2019-06-26T12:55:07.398Z,51.57
2019-06-26T12:57:36.122Z,51.70
2019-06-26T13:00:07.879Z,51.31
2019-06-26T13:02:36.658Z,52.21
2019-06-26T13:05:07.071Z,53.78
2019-06-26T13:07:35.878Z,54.54
2019-06-26T13:10:07.662Z,56.58
2019-06-26T13:12:37.132Z,54.97
2019-06-26T13:15:10.115Z,56.69
2019-06-26T13:17:38.835Z,57.81
2019-06-26T13:20:11.469Z,58.83
2019-06-26T13:22:40.208Z,60.30
2019-06-26T13:25:09.546Z,69.58
2019-06-26T13:27:38.239Z,74.44
2019-06-26T13:30:08.356Z,76.03
2019-06-26T13:32:37.066Z,77.24
2019-06-26T13:35:07.107Z,76.73
2019-06-26T13:37:35.810Z,76.41
2019-06-26T13:40:06.566Z,74.54
2019-06-26T13:42:35.268Z,75.10
2019-06-26T13:45:06.123Z,71.92
2019-06-26T13:47:34.872Z,76.00
2019-06-26T13:50:05.198Z,76.53
2019-06-26T13:52:33.899Z,74.93
2019-06-26T13:55:02.618Z,78.43
2019-06-26T13:57:31.334Z,80.60
2019-06-26T14:00:00.091Z,79.23
2019-06-26T14:02:28.832Z,78.97
2019-06-26T14:04:57.518Z,77.54
2019-06-26T14:07:26.236Z,80.66
2019-06-26T14:09:54.945Z,81.05
2019-06-26T14:12:23.698Z,87.66
2019-06-26T14:14:57.712Z,90.24
2019-06-26T14:17:22.850Z,91.19
2019-06-26T14:19:51.605Z,89.45
2019-06-26T14:22:20.337Z,86.08
2019-06-26T14:24:49.023Z,83.40
2019-06-26T14:27:17.746Z,81.11
2019-06-26T14:29:46.441Z,80.46
2019-06-26T14:32:15.192Z,77.41
2019-06-26T14:34:43.941Z,76.82
2019-06-26T14:37:12.650Z,75.27
2019-06-26T14:39:41.369Z,73.34
2019-06-26T14:42:10.087Z,74.42
2019-06-26T14:44:38.815Z,70.49
2019-06-26T14:47:07.516Z,68.76
2019-06-26T14:49:36.224Z,68.03
2019-06-26T14:52:04.936Z,68.25
2019-06-26T14:54:33.637Z,68.86
2019-06-26T14:57:02.407Z,71.28
2019-06-26T14:59:31.113Z,71.01
2019-06-26T15:01:59.819Z,70.05
2019-06-26T15:04:28.545Z,71.11
2019-06-26T15:06:57.244Z,71.52
2019-06-26T15:09:26.013Z,71.36
2019-06-26T15:11:54.724Z,71.86
2019-06-26T15:14:23.433Z,71.76
2019-06-26T15:16:52.192Z,70.61
2019-06-26T15:19:20.906Z,71.84
2019-06-26T15:21:58.440Z,70.21
2019-06-26T15:24:20.103Z,69.74
2019-06-26T15:26:48.813Z,68.26
2019-06-26T15:29:17.529Z,68.28
2019-06-26T15:31:46.251Z,69.32
2019-06-26T15:34:14.966Z,67.92
2019-06-26T15:36:43.742Z,67.66
2019-06-26T15:39:12.426Z,68.01
2019-06-26T15:41:41.139Z,69.71
2019-06-26T15:44:09.914Z,71.36
2019-06-26T15:46:38.634Z,70.53
2019-06-26T15:49:07.345Z,69.80
2019-06-26T15:51:36.073Z,70.42
2019-06-26T15:54:04.795Z,70.71
2019-06-26T15:56:33.559Z,70.43
2019-06-26T15:59:02.281Z,70.97
2019-06-26T16:01:30.991Z,70.71
2019-06-26T16:03:59.717Z,71.01
2019-06-26T16:06:29.499Z,71.24
2019-06-26T16:08:58.243Z,72.17
2019-06-26T16:11:26.957Z,71.47
2019-06-26T16:13:55.670Z,73.73
2019-06-26T16:16:25.260Z,73.89
2019-06-26T16:18:58.459Z,73.05
2019-06-26T16:21:27.176Z,72.88
2019-06-26T16:23:55.903Z,72.68
2019-06-26T16:26:25.784Z,72.47
2019-06-26T16:28:54.531Z,71.96
2019-06-26T16:31:23.241Z,72.19
2019-06-26T16:33:51.961Z,74.06
2019-06-26T16:36:20.698Z,75.21
2019-06-26T16:38:49.412Z,76.30
2019-06-26T16:41:18.186Z,77.49
2019-06-26T16:43:46.901Z,79.72
2019-06-26T16:46:15.612Z,78.83
2019-06-26T16:48:44.381Z,79.66
2019-06-26T16:51:13.098Z,79.46
2019-06-26T16:53:41.809Z,80.19
2019-06-26T16:56:10.526Z,80.90
2019-06-26T16:58:39.235Z,81.18
2019-06-26T17:01:07.997Z,80.29
2019-06-26T17:03:36.706Z,80.19
2019-06-26T17:06:05.512Z,79.69
2019-06-26T17:08:34.267Z,78.48
2019-06-26T17:11:03.080Z,78.69
2019-06-26T17:13:31.774Z,78.92
2019-06-26T17:16:00.495Z,77.93
2019-06-26T17:18:29.218Z,78.92
2019-06-26T17:20:57.971Z,78.20
2019-06-26T17:23:26.699Z,78.53
2019-06-26T17:25:55.444Z,78.22
2019-06-26T17:28:24.201Z,78.41
2019-06-26T17:30:53.114Z,79.72
2019-06-26T17:33:21.852Z,79.77
2019-06-26T17:35:50.595Z,80.50
2019-06-26T17:38:19.307Z,80.38
2019-06-26T17:40:48.063Z,80.58
2019-06-26T17:43:16.768Z,81.12
2019-06-26T17:45:45.490Z,80.92
2019-06-26T17:48:14.228Z,80.97
2019-06-26T17:50:42.944Z,81.21
2019-06-26T17:53:21.083Z,79.62
2019-06-26T17:55:42.153Z,79.44
2019-06-26T17:58:10.865Z,79.71
2019-06-26T18:00:39.721Z,79.51
2019-06-26T18:03:08.433Z,79.93
2019-06-26T18:05:37.143Z,80.09
2019-06-26T18:08:05.887Z,79.98
2019-06-26T18:10:34.593Z,79.59
2019-06-26T18:13:03.357Z,79.73
2019-06-26T18:15:32.066Z,78.92
2019-06-26T18:18:00.777Z,79.87
2019-06-26T18:20:30.940Z,80.31
2019-06-26T18:23:07.248Z,79.96
2019-06-26T18:25:30.103Z,80.47
2019-06-26T18:27:58.816Z,81.20
2019-06-26T18:30:27.532Z,81.59
2019-06-26T18:32:56.248Z,81.63
2019-06-26T18:35:24.958Z,81.84
2019-06-26T18:37:53.678Z,82.36
2019-06-26T18:40:22.409Z,82.51
2019-06-26T18:42:51.131Z,82.77
2019-06-26T18:45:19.851Z,82.37
2019-06-26T18:47:48.682Z,82.47
2019-06-26T18:50:17.392Z,82.61
2019-06-26T18:52:46.114Z,82.08
2019-06-26T18:55:14.966Z,82.20
2019-06-26T18:57:43.678Z,82.86
2019-06-26T19:00:12.589Z,83.06
2019-06-26T19:02:41.307Z,82.50
2019-06-26T19:05:10.111Z,82.19
2019-06-26T19:07:38.876Z,82.87
2019-06-26T19:10:08.694Z,82.11
2019-06-26T19:12:37.401Z,81.65
2019-06-26T19:15:07.433Z,81.75
2019-06-26T19:17:36.139Z,81.42
2019-06-26T19:20:07.771Z,81.84
2019-06-26T19:22:36.480Z,82.38
2019-06-26T19:25:07.274Z,82.33
2019-06-26T19:27:35.982Z,82.59
2019-06-26T19:30:07.646Z,81.99
2019-06-26T19:32:37.536Z,82.02
2019-06-26T19:35:18.082Z,81.99
2019-06-26T19:37:37.363Z,82.09
2019-06-26T19:40:08.762Z,82.37
2019-06-26T19:42:36.782Z,82.43
2019-06-26T19:45:09.591Z,82.01
2019-06-26T19:47:38.303Z,82.39
2019-06-26T19:50:08.317Z,82.58
2019-06-26T19:52:37.319Z,82.04
2019-06-26T19:55:06.342Z,81.81
2019-06-26T19:57:35.095Z,82.00
2019-06-26T20:00:05.845Z,82.90
2019-06-26T20:02:34.543Z,82.84
2019-06-26T20:05:11.740Z,82.47
2019-06-26T20:07:53.086Z,83.54
2019-06-26T20:10:36.502Z,83.29
2019-06-26T20:13:19.139Z,84.04
2019-06-26T20:15:57.046Z,83.47
2019-06-26T20:18:28.492Z,82.65
2019-06-26T20:21:01.673Z,82.04
2019-06-26T20:23:35.526Z,84.16
2019-06-26T20:26:13.235Z,84.12
2019-06-26T20:28:50.436Z,83.88
2019-06-26T20:31:22.488Z,83.60
2019-06-26T20:33:53.786Z,83.77
2019-06-26T20:42:08.504Z,84.53
2019-06-26T20:44:41.834Z,84.71
2019-06-26T20:47:23.132Z,84.49
2019-06-26T20:49:58.327Z,85.27
2019-06-26T20:52:36.574Z,85.48
2019-06-26T21:00:50.685Z,84.59
2019-06-26T21:03:22.832Z,83.79
2019-06-26T21:05:53.322Z,83.81
2019-06-26T21:08:31.936Z,83.99
2019-06-26T21:11:05.951Z,83.66
2019-06-26T21:13:42.011Z,84.54
2019-06-26T21:16:13.845Z,83.82
2019-06-26T21:18:43.155Z,84.65
2019-06-26T21:21:17.901Z,85.24
2019-06-26T21:23:53.548Z,86.02
2019-06-26T21:26:30.697Z,86.72
2019-06-26T21:29:01.021Z,88.38
2019-06-26T21:31:32.792Z,87.27
2019-06-26T21:34:14.012Z,87.54
2019-06-26T21:37:05.326Z,89.72
2019-06-26T21:39:45.574Z,89.78
2019-06-26T21:42:17.999Z,88.83
2019-06-26T21:44:54.396Z,87.99
2019-06-26T21:47:32.602Z,86.91
2019-06-26T21:50:01.366Z,86.92
2019-06-26T21:52:30.108Z,86.73
2019-06-26T21:54:58.870Z,87.40
2019-06-26T21:57:27.579Z,86.27
2019-06-26T21:59:56.333Z,85.93
2019-06-26T22:02:25.049Z,86.01
2019-06-26T22:04:53.771Z,85.92
2019-06-26T22:07:22.611Z,86.23
2019-06-26T22:09:51.309Z,86.31
2019-06-26T22:12:20.374Z,85.59
2019-06-26T22:14:49.080Z,85.46
2019-06-26T22:17:17.787Z,85.86
2019-06-26T22:19:46.507Z,85.60
2019-06-26T22:22:15.214Z,86.03
2019-06-26T22:24:43.985Z,86.64
2019-06-26T22:27:12.897Z,87.00
2019-06-26T22:29:41.620Z,86.37
2019-06-26T22:32:10.342Z,86.21
2019-06-26T22:34:39.061Z,86.55
2019-06-26T22:37:07.829Z,86.89
2019-06-26T22:39:36.549Z,86.75
2019-06-26T22:42:05.257Z,85.25
2019-06-26T22:44:34.011Z,85.16
2019-06-26T22:47:02.719Z,85.34
2019-06-26T22:49:31.433Z,84.72
2019-06-26T22:52:00.151Z,85.20
2019-06-26T22:54:28.877Z,84.82
2019-06-26T22:56:57.657Z,84.61
2019-06-26T22:59:26.372Z,84.88
2019-06-26T23:01:55.093Z,85.03
2019-06-26T23:04:23.902Z,84.95
2019-06-26T23:06:52.670Z,85.40
2019-06-26T23:09:21.399Z,85.21
2019-06-26T23:11:50.121Z,85.46
2019-06-26T23:14:18.849Z,84.69
2019-06-26T23:16:47.579Z,84.11
2019-06-26T23:19:16.303Z,83.67
2019-06-26T23:21:45.069Z,83.20
2019-06-26T23:24:13.796Z,83.69
2019-06-26T23:26:42.519Z,83.82
2019-06-26T23:29:11.248Z,84.01
2019-06-26T23:31:39.964Z,83.83
2019-06-26T23:34:08.777Z,84.13
2019-06-26T23:36:37.531Z,84.32
2019-06-26T23:39:06.491Z,84.97
2019-06-26T23:41:35.247Z,85.30
2019-06-26T23:44:04.020Z,84.40
2019-06-26T23:46:32.806Z,85.79
2019-06-26T23:49:01.560Z,86.18
2019-06-26T23:51:30.438Z,85.97
2019-06-26T23:53:59.154Z,86.55
2019-06-26T23:56:40.067Z,87.67
2019-06-26T23:58:58.437Z,88.67
